Nearby METAR Reports

 

KAPA - Denver/Arapahoe, Colorado, USA
Distance from station: W 7mi, 11km
Updated: Wed, 19-Jun-2024 1:53am MDT
Mostly cloudy
Mostly cloudy
 Wind from SSW
Wind: SSW 5 mph , 7 km/h
Temperature: 55°F , 13°C
Dew Point: 34°F , 1°C
Humidity: 44%
Barometer: 30.20 inHg , 1022.7 hPa
Clouds: Mostly cloudy
Visibility: 10 miles , 16 km
Cloud details: Mostly cloudy 8500 ft
Mostly cloudy 12000 ft
2024/06/19 07:53 KAPA 190753Z 20004KT 10SM BKN085 BKN120 13/01 A3020 RMK AO2 SLP179 T01280006
KBKF - Buckley Angb/Den, Colorado, USA
Distance from station: N 11mi, 17km
Updated: Wed, 19-Jun-2024 1:58am MDT
Mostly cloudy
Mostly cloudy
 Wind from S
Wind: S 8 mph , 13 km/h
Temperature: 55°F , 13°C
Dew Point: 32°F , 0°C
Humidity: 41%
Barometer: 30.18 inHg , 1022 hPa
Clouds: Mostly cloudy
Visibility: 10 miles , 16 km
Cloud details: Mostly cloudy 8500 ft
2024/06/19 07:58 KBKF 190758Z 18007KT 10SM BKN085 13/M00 A3018 RMK AO2A SLP164 T01331004
 
KCFO - Denver Space Por, Colorado, USA
Distance from station: NNE 18mi, 29km
Updated: Wed, 19-Jun-2024 1:55am MDT
Overcast
Overcast
 Wind from SE
Wind: SE 5 mph , 7 km/h
Temperature: 59°F , 15°C
Dew Point: 32°F , 0°C
Humidity: 36%
Barometer: 30.19 inHg , 1022.4 hPa
Clouds: Overcast
Visibility: 10 miles , 16 km
Cloud details: Overcast 9000 ft
2024/06/19 07:55 KCFO 190755Z AUTO 13004KT 10SM OVC090 15/00 A3019 RMK AO2 T01510000
KDEN - Denver (dia), Colorado, USA
Distance from station: N 20mi, 32km
Updated: Wed, 19-Jun-2024 1:53am MDT
Mostly cloudy
Mostly cloudy
 Wind from SSE
Wind: SSE 7 mph , 11 km/h
Temperature: 55°F , 13°C
Dew Point: 34°F , 1°C
Humidity: 44%
Barometer: 30.18 inHg , 1022 hPa
Clouds: Mostly cloudy
Visibility: 10 miles , 16 km
Cloud details: Mostly cloudy 9000 ft
2024/06/19 07:53 KDEN 190753Z 15006KT 10SM BKN090 13/01 A3018 RMK AO2 SLP157 T01330006
 
KBJC - Broomfield/Jeffc, Colorado, USA
Distance from station: NW 31mi, 49km
Updated: Wed, 19-Jun-2024 1:55am MDT
Partly cloudy
Partly cloudy
 Wind from SSE
Wind: SSE 6 mph , 9 km/h
Temperature: 59°F , 15°C
Dew Point: 30°F , -1°C
Humidity: 34%
Barometer: 30.20 inHg , 1022.7 hPa
Clouds: Partly cloudy
Visibility: 10 miles , 16 km
Cloud details: Partly cloudy 9000 ft
2024/06/19 07:55 KBJC 190755Z AUTO 15005KT 10SM SCT090 15/M01 A3020 RMK AO2
KEIK - Erie Muni, Colorado, USA
Distance from station: NNW 36mi, 58km
Updated: Wed, 19-Jun-2024 1:55am MDT
Mostly cloudy
Mostly cloudy
 Wind from S
Wind: S 5 mph , 7 km/h
Temperature: 59°F , 15°C
Dew Point: 32°F , 0°C
Humidity: 36%
Barometer: 30.16 inHg , 1021.3 hPa
Clouds: Mostly cloudy
Visibility: 9 miles , 14 km
Cloud details: Mostly cloudy 9500 ft
2024/06/19 07:55 KEIK 190755Z AUTO 18004KT 9SM BKN095 15/00 A3016 RMK AO2 T01530002
 
KAFF - Usaf Academy/Cos, Colorado, USA
Distance from station: S 42mi, 67km
Updated: Wed, 19-Jun-2024 1:55am MDT
Overcast
Overcast
 Wind from N
Wind: N 7 mph , 11 km/h
Temperature: 48°F , 9°C
Wind Chill: 45°F , 7°C
Dew Point: 28°F , -2°C
Humidity: 46%
Barometer: 30.22 inHg , 1023.4 hPa
Clouds: Overcast
Visibility: 10 miles , 16 km
Cloud details: Overcast 6000 ft
2024/06/19 07:55 KAFF 190755Z AUTO 35006KT 10SM OVC060 09/M02 A3022 RMK AO2 SLP160 T00881025
KBDU - Boulder Muni, Colorado, USA
Distance from station: NW 42mi, 68km
Updated: Wed, 19-Jun-2024 1:55am MDT
Partly cloudy
Partly cloudy
 Wind from calm
Wind: Calm
Temperature: 59°F , 15°C
Dew Point: 32°F , 0°C
Humidity: 36%
Barometer: 30.18 inHg , 1022 hPa
Clouds: Partly cloudy
Visibility: 10 miles , 16 km
Cloud details: Partly cloudy 9000 ft
2024/06/19 07:55 KBDU 190755Z AUTO 00000KT 10SM SCT090 15/00 A3018 RMK AO2
 
KFLY - Co Spngs Meadow, Colorado, USA
Distance from station: SSE 43mi, 70km
Updated: Wed, 19-Jun-2024 1:55am MDT
Overcast
Overcast
 Wind from NNE
Wind: NNE 14 mph , 22 km/h
Temperature: 52°F , 11°C
Dew Point: 30°F , -1°C
Humidity: 44%
Barometer: 30.25 inHg , 1024.4 hPa
Clouds: Overcast
Visibility: 10 miles , 16 km
Cloud details: Overcast 6500 ft
2024/06/19 07:55 KFLY 190755Z AUTO 02012KT 10SM OVC065 11/M01 A3025 RMK AO2 T01101008
KLMO - Longmont/Vbrand, Colorado, USA
Distance from station: NNW 48mi, 77km
Updated: Tue, 18-Jun-2024 2:46pm MDT
NOT Current
Clear
Clear
 Wind from SE
Wind: SE 13 mph , 20 km/h, Gust: 18 mph , 30 km/h
Temperature: 75°F , 24°C
Dew Point: 25°F , -4°C
Humidity: 15%
Barometer: 29.98 inHg , 1015.2 hPa
Clouds: Clear
Visibility: 7 miles , 11 km
2024/06/18 20:46 KLMO 182046Z AUTO 14011G16KT 7SM CLR 24/M04 A2998 RMK AO2 T02371038
 
KCOS - Colorado Springs, Colorado, USA
Distance from station: S 52mi, 83km
Updated: Wed, 19-Jun-2024 1:54am MDT
Mostly cloudy
Mostly cloudy
 Wind from N
Wind: N 8 mph , 13 km/h
Temperature: 57°F , 14°C
Dew Point: 32°F , 0°C
Humidity: 39%
Barometer: 30.22 inHg , 1023.4 hPa
Clouds: Mostly cloudy
Visibility: 10 miles , 16 km
Cloud details: Mostly cloudy 7000 ft
2024/06/19 07:54 KCOS 190754Z 36007KT 10SM BKN070 14/00 A3022 RMK AO2 SLP161 T01390000
KSHM - Schriever Afb, Colorado, USA
Distance from station: SSE 54mi, 87km
Updated: Wed, 19-Jun-2024 1:55am MDT
Overcast
Overcast
 Wind from NNE
Wind: NNE 8 mph , 13 km/h
Temperature: 55°F , 13°C
Dew Point: 32°F , 0°C
Humidity: 41%
Barometer: 30.17 inHg , 1021.7 hPa
Clouds: Overcast
Visibility: 10 miles , 16 km
Cloud details: Overcast 6500 ft
2024/06/19 07:55 KSHM 190755Z AUTO 02007KT 10SM OVC065 13/M00 A3017 RMK AO2 SLP152 T01311002 402400125 $
 
K4BM - Wilkerson Pass, Colorado, USA
Distance from station: SW 55mi, 89km
Updated: Wed, 19-Jun-2024 1:55am MDT
Partly cloudy
Partly cloudy
 Wind from NE
Wind: NE 7 mph , 11 km/h
Temperature: 36°F , 2°C
Wind Chill: 30°F , -1°C
Dew Point: 23°F , -5°C
Humidity: 60%
Barometer: 30.45 inHg , 1031.2 hPa
Clouds: Partly cloudy
Visibility: 10 miles , 16 km
Cloud details: Partly cloudy 11000 ft
2024/06/19 07:55 K4BM 190755Z AUTO 05006KT 10SM SCT110 02/M05 A3045 RMK AO2
KCWN - Cheyenne Mtn, Colorado, USA
Distance from station: S 57mi, 91km
Updated: Wed, 19-Jun-2024 1:55am MDT
Overcast
Overcast
 Wind from NNW
Wind: NNW 7 mph , 11 km/h
Temperature: 55°F , 13°C
Dew Point: 28°F , -2°C
Humidity: 36%
Barometer: 30.23 inHg , 1023.7 hPa
Clouds: Overcast
Visibility: 10 miles , 16 km
Cloud details: Overcast 6000 ft
2024/06/19 07:55 KCWN 190755Z AUTO 33006KT 10SM OVC060 13/M02 A3023 RMK AO2 SLP060 T01331022 $
 
K0CO - Berthoud Pass, Colorado, USA
Distance from station: WNW 58mi, 93km
Updated: Wed, 19-Jun-2024 1:55am MDT
Clear
Clear
 Wind from SE
Wind: SE 32 mph , 52 km/h, Gust: 40 mph , 65 km/h
Temperature: 30°F , -1°C
Wind Chill: 14°F , -10°C
Dew Point: 23°F , -5°C
Humidity: 75%
Barometer: 30.43 inHg , 1030.5 hPa
Clouds: Clear
2024/06/19 07:55 K0CO 190755Z AUTO 14028G35KT CLR M01/M05 A3043 RMK AO2 PWINO
KGXY - Greeley/Weld, Colorado, USA
Distance from station: N 59mi, 95km
Updated: Wed, 19-Jun-2024 1:56am MDT
Mostly cloudy
Mostly cloudy
 Wind from calm
Wind: Calm
Temperature: 57°F , 14°C
Dew Point: 36°F , 2°C
Humidity: 44%
Barometer: 30.18 inHg , 1022 hPa
Clouds: Mostly cloudy
Visibility: 10 miles , 16 km
Cloud details: Mostly cloudy 10000 ft
2024/06/19 07:56 KGXY 190756Z 00000KT 10SM BKN100 14/02 A3018 RMK AO2 SLP192 T01440022
 
KABH - Ellicott-B Afa, Colorado, USA
Distance from station: SSE 60mi, 96km
Updated: Wed, 19-Jun-2024 1:55am MDT
Overcast
Overcast
 Wind from ENE
Wind: ENE 12 mph , 19 km/h
Temperature: 57°F , 14°C
Dew Point: 32°F , 0°C
Humidity: 39%
Barometer: 30.20 inHg , 1022.7 hPa
Clouds: Overcast
Visibility: 10 miles , 16 km
Cloud details: Overcast 7000 ft
2024/06/19 07:55 KABH 190755Z AUTO 06010KT 10SM OVC070 14/M00 A3020 RMK AO2 SLP162 T01381003
KLIC - Limon, Colorado, USA
Distance from station: ESE 60mi, 97km
Updated: Wed, 19-Jun-2024 1:55am MDT
Overcast
Overcast
 Wind from NE
Wind: NE 7 mph , 11 km/h
Temperature: 59°F , 15°C
Dew Point: 36°F , 2°C
Humidity: 42%
Barometer: 30.17 inHg , 1021.7 hPa
Clouds: Overcast
Visibility: 10 miles , 16 km
Cloud details: Overcast 8500 ft
2024/06/19 07:55 KLIC 190755Z AUTO 05006KT 10SM OVC085 15/02 A3017 RMK AO2 SLP147 T01500017 $
 
KFCS - Fort Carson, Colorado, USA
Distance from station: S 62mi, 100km
Updated: Wed, 19-Jun-2024 1:55am MDT
Overcast
Overcast
 Wind from N
Wind: N 8 mph , 13 km/h
Temperature: 59°F , 15°C
Dew Point: 28°F , -2°C
Humidity: 31%
Barometer: 30.17 inHg , 1021.7 hPa
Clouds: Overcast
Visibility: 10 miles , 16 km
Cloud details: Overcast 6500 ft
2024/06/19 07:55 KFCS 190755Z AUTO 36007KT 10SM OVC065 15/M02 A3017 RMK AO2 SLP162 T01461023 $
KFNL - Ft Collins/Lovel, Colorado, USA
Distance from station: NNW 63mi, 102km
Updated: Wed, 19-Jun-2024 1:56am MDT
Overcast
Overcast
 Wind from ESE
Wind: ESE 5 mph , 7 km/h
Temperature: 61°F , 16°C
Dew Point: 34°F , 1°C
Humidity: 36%
Barometer: 30.18 inHg , 1022 hPa
Clouds: Overcast
Visibility: 10 miles , 16 km
Cloud details: Overcast 9500 ft
2024/06/19 07:56 KFNL 190756Z AUTO 11004KT 10SM OVC095 16/01 A3018 RMK AO2 SLP170 T01560006